Time,TemperatureF,DewpointF,PressureIn,WindDirection,WindDirectionDegrees,WindSpeedMPH,WindSpeedGustMPH,Humidity,HourlyPrecipIn,Conditions,Clouds,dailyrainin,SoftwareType,DateUTC
2013-03-27 00:07:00,40.1,26.0,30.32,ESE,117,1.0,4.0,57,0.00,,,0.00,weatherlink.com 1.10,2013-03-27 05:07:00,
2013-03-27 00:37:00,40.8,26.0,30.31,SW,219,1.0,7.0,55,0.00,,,0.00,weatherlink.com 1.10,2013-03-27 05:37:00,
2013-03-27 00:52:00,41.3,25.0,30.31,SSE,163,4.0,9.0,52,0.00,,,0.00,weatherlink.com 1.10,2013-03-27 05:52:00,
2013-03-27 01:07:00,41.5,24.0,30.30,ESE,122,5.0,11.0,51,0.00,,,0.00,weatherlink.com 1.10,2013-03-27 06:07:00,
2013-03-27 01:22:00,41.6,24.0,30.30,ESE,123,2.0,9.0,49,0.00,,,0.00,weatherlink.com 1.10,2013-03-27 06:22:00,
2013-03-27 01:37:00,41.9,23.0,30.29,SSE,167,2.0,10.0,47,0.00,,,0.00,weatherlink.com 1.10,2013-03-27 06:37:00,
2013-03-27 01:52:00,41.7,23.0,30.29,East,96,2.0,10.0,47,0.00,,,0.00,weatherlink.com 1.10,2013-03-27 06:52:00,
2013-03-27 02:07:00,41.6,22.0,30.28,SSE,155,8.0,12.0,46,0.00,,,0.00,weatherlink.com 1.10,2013-03-27 07:07:00,
2013-03-27 02:22:00,41.3,22.0,30.28,SE,124,3.0,12.0,47,0.00,,,0.00,weatherlink.com 1.10,2013-03-27 07:22:00,
2013-03-27 02:37:00,40.9,22.0,30.28,SE,143,6.0,10.0,48,0.00,,,0.00,weatherlink.com 1.10,2013-03-27 07:37:00,
2013-03-27 02:52:00,40.4,22.0,30.28,ESE,111,6.0,9.0,49,0.00,,,0.00,weatherlink.com 1.10,2013-03-27 07:52:00,
2013-03-27 03:07:00,39.7,23.0,30.27,SE,146,3.0,6.0,51,0.00,,,0.00,weatherlink.com 1.10,2013-03-27 08:07:00,
2013-03-27 03:22:00,39.2,23.0,30.27,SSE,156,3.0,7.0,53,0.00,,,0.00,weatherlink.com 1.10,2013-03-27 08:22:00,
2013-03-27 03:37:00,38.7,23.0,30.27,SE,139,3.0,7.0,54,0.00,,,0.00,weatherlink.com 1.10,2013-03-27 08:37:00,
2013-03-27 03:52:00,38.3,23.0,30.27,SE,127,2.0,5.0,55,0.00,,,0.00,weatherlink.com 1.10,2013-03-27 08:52:00,
2013-03-27 04:07:00,37.8,23.0,30.27,SE,131,1.0,4.0,56,0.00,,,0.00,weatherlink.com 1.10,2013-03-27 09:07:00,
2013-03-27 04:22:00,36.8,23.0,30.26,SE,145,1.0,3.0,58,0.00,,,0.00,weatherlink.com 1.10,2013-03-27 09:22:00,
2013-03-27 04:37:00,36.4,24.0,30.26,SSE,150,1.0,4.0,60,0.00,,,0.00,weatherlink.com 1.10,2013-03-27 09:37:00,
2013-03-27 04:52:00,36.3,24.0,30.25,SSE,154,1.0,5.0,61,0.00,,,0.00,weatherlink.com 1.10,2013-03-27 09:52:00,
2013-03-27 05:07:00,35.9,24.0,30.26,SE,136,0.0,2.0,62,0.00,,,0.00,weatherlink.com 1.10,2013-03-27 10:07:00,
2013-03-27 05:22:00,35.4,24.0,30.26,SE,138,0.0,2.0,63,0.00,,,0.00,weatherlink.com 1.10,2013-03-27 10:22:00,
2013-03-27 05:37:00,35.1,24.0,30.26,ESE,115,2.0,4.0,65,0.00,,,0.00,weatherlink.com 1.10,2013-03-27 10:37:00,
2013-03-27 05:52:00,34.9,24.0,30.27,South,184,1.0,5.0,64,0.00,,,0.00,weatherlink.com 1.10,2013-03-27 10:52:00,
2013-03-27 06:07:00,-999.0,-99.9,30.27,North,-999,-999.0,-999.0,-999,0.00,,,0.00,weatherlink.com 1.10,2013-03-27 11:07:00,
2013-03-27 06:22:00,-999.0,-99.9,30.27,North,-999,-999.0,-999.0,-999,0.00,,,0.00,weatherlink.com 1.10,2013-03-27 11:22:00,
2013-03-27 06:37:00,-999.0,-99.9,30.27,North,-999,-999.0,-999.0,-999,0.00,,,0.00,weatherlink.com 1.10,2013-03-27 11:37:00,
2013-03-27 06:52:00,-999.0,-99.9,30.27,North,-999,-999.0,-999.0,-999,0.00,,,0.00,weatherlink.com 1.10,2013-03-27 11:52:00,
2013-03-27 07:07:00,-999.0,-99.9,30.27,North,-999,-999.0,-999.0,-999,0.00,,,0.00,weatherlink.com 1.10,2013-03-27 12:07:00,
2013-03-27 07:22:00,-999.0,-99.9,30.27,North,-999,-999.0,-999.0,-999,0.00,,,0.00,weatherlink.com 1.10,2013-03-27 12:22:00,
2013-03-27 07:38:00,-999.0,-99.9,30.27,North,-999,-999.0,-999.0,-999,0.00,,,0.00,weatherlink.com 1.10,2013-03-27 12:38:00,
2013-03-27 07:53:00,-999.0,-99.9,30.27,North,-999,-999.0,-999.0,-999,0.00,,,0.00,weatherlink.com 1.10,2013-03-27 12:53:00,
2013-03-27 08:08:00,-999.0,-99.9,30.27,North,-999,-999.0,-999.0,-999,0.00,,,0.00,weatherlink.com 1.10,2013-03-27 13:08:00,
2013-03-27 08:23:00,42.2,26.0,30.27,North,349,4.0,11.0,52,0.00,,,0.00,weatherlink.com 1.10,2013-03-27 13:23:00,
2013-03-27 08:38:00,44.7,26.0,30.27,South,174,5.0,13.0,48,0.00,,,0.00,weatherlink.com 1.10,2013-03-27 13:38:00,
2013-03-27 08:53:00,46.9,26.0,30.28,SE,143,5.0,10.0,45,0.00,,,0.00,weatherlink.com 1.10,2013-03-27 13:53:00,
2013-03-27 09:08:00,49.3,27.0,30.28,SSE,149,9.0,13.0,42,0.00,,,0.00,weatherlink.com 1.10,2013-03-27 14:08:00,
2013-03-27 09:23:00,49.7,27.0,30.28,WSW,240,6.0,15.0,41,0.00,,,0.00,weatherlink.com 1.10,2013-03-27 14:23:00,
2013-03-27 09:38:00,50.0,28.0,30.28,WSW,250,6.0,18.0,42,0.00,,,0.00,weatherlink.com 1.10,2013-03-27 14:38:00,
2013-03-27 09:53:00,51.1,27.0,30.28,SSE,153,14.0,19.0,40,0.00,,,0.00,weatherlink.com 1.10,2013-03-27 14:53:00,
2013-03-27 10:08:00,51.4,28.0,30.27,South,170,7.0,15.0,40,0.00,,,0.00,weatherlink.com 1.10,2013-03-27 15:08:00,
2013-03-27 10:23:00,51.9,28.0,30.26,SSE,163,9.0,16.0,40,0.00,,,0.00,weatherlink.com 1.10,2013-03-27 15:23:00,
2013-03-27 10:38:00,53.1,29.0,30.26,SE,133,9.0,11.0,39,0.00,,,0.00,weatherlink.com 1.10,2013-03-27 15:38:00,
2013-03-27 10:53:00,54.7,28.0,30.26,South,169,6.0,15.0,36,0.00,,,0.00,weatherlink.com 1.10,2013-03-27 15:53:00,
2013-03-27 11:08:00,55.8,28.0,30.26,SSE,155,6.0,21.0,34,0.00,,,0.00,weatherlink.com 1.10,2013-03-27 16:08:00,
2013-03-27 11:23:00,55.6,29.0,30.24,SE,146,11.0,18.0,36,0.00,,,0.00,weatherlink.com 1.10,2013-03-27 16:23:00,
2013-03-27 11:38:00,58.5,30.0,30.24,SSE,148,10.0,20.0,34,0.00,,,0.00,weatherlink.com 1.10,2013-03-27 16:38:00,
2013-03-27 11:53:00,60.3,31.0,30.24,WNW,290,13.0,20.0,33,0.00,,,0.00,weatherlink.com 1.10,2013-03-27 16:53:00,
2013-03-27 12:08:00,61.3,32.0,30.23,SSE,153,11.0,19.0,33,0.00,,,0.00,weatherlink.com 1.10,2013-03-27 17:08:00,
2013-03-27 12:23:00,62.4,32.0,30.23,South,170,15.0,19.0,32,0.00,,,0.00,weatherlink.com 1.10,2013-03-27 17:23:00,
2013-03-27 12:38:00,62.6,33.0,30.22,SSE,151,13.0,19.0,33,0.00,,,0.00,weatherlink.com 1.10,2013-03-27 17:38:00,
2013-03-27 12:53:00,63.5,34.0,30.21,SSE,156,10.0,20.0,33,0.00,,,0.00,weatherlink.com 1.10,2013-03-27 17:53:00,
2013-03-27 13:08:00,63.6,35.0,30.20,SSE,165,10.0,22.0,34,0.00,,,0.00,weatherlink.com 1.10,2013-03-27 18:08:00,
2013-03-27 13:24:00,64.7,36.0,30.19,WSW,253,13.0,23.0,34,0.00,,,0.00,weatherlink.com 1.10,2013-03-27 18:24:00,
2013-03-27 13:38:00,64.6,35.0,30.19,SSE,163,9.0,22.0,34,0.00,,,0.00,weatherlink.com 1.10,2013-03-27 18:38:00,
2013-03-27 13:53:00,64.9,36.0,30.19,SW,221,10.0,19.0,34,0.00,,,0.00,weatherlink.com 1.10,2013-03-27 18:53:00,
2013-03-27 14:08:00,65.0,36.0,30.17,SE,139,17.0,20.0,34,0.00,,,0.00,weatherlink.com 1.10,2013-03-27 19:08:00,
2013-03-27 14:23:00,65.8,36.0,30.15,SE,141,11.0,23.0,33,0.00,,,0.00,weatherlink.com 1.10,2013-03-27 19:23:00,
2013-03-27 14:38:00,66.6,37.0,30.14,SW,221,15.0,25.0,34,0.00,,,0.00,weatherlink.com 1.10,2013-03-27 19:38:00,
2013-03-27 14:53:00,66.9,37.0,30.13,South,172,14.0,22.0,33,0.00,,,0.00,weatherlink.com 1.10,2013-03-27 19:53:00,
2013-03-27 15:08:00,67.0,37.0,30.13,SE,131,9.0,20.0,33,0.00,,,0.00,weatherlink.com 1.10,2013-03-27 20:08:00,
2013-03-27 15:23:00,68.1,38.0,30.11,East,91,9.0,21.0,33,0.00,,,0.00,weatherlink.com 1.10,2013-03-27 20:23:00,
2013-03-27 15:38:00,68.1,39.0,30.10,SE,144,14.0,23.0,34,0.00,,,0.00,weatherlink.com 1.10,2013-03-27 20:38:00,
2013-03-27 15:53:00,68.3,38.0,30.09,SSW,197,13.0,22.0,33,0.00,,,0.00,weatherlink.com 1.10,2013-03-27 20:53:00,
2013-03-27 16:08:00,68.3,39.0,30.08,SSE,152,13.0,21.0,34,0.00,,,0.00,weatherlink.com 1.10,2013-03-27 21:08:00,
2013-03-27 16:23:00,67.9,39.0,30.08,SE,139,13.0,25.0,35,0.00,,,0.00,weatherlink.com 1.10,2013-03-27 21:23:00,
2013-03-27 16:38:00,68.1,39.0,30.08,South,173,15.0,27.0,35,0.00,,,0.00,weatherlink.com 1.10,2013-03-27 21:38:00,
2013-03-27 16:53:00,68.3,40.0,30.07,SE,136,15.0,20.0,35,0.00,,,0.00,weatherlink.com 1.10,2013-03-27 21:53:00,
2013-03-27 17:08:00,68.8,40.0,30.07,SW,228,9.0,18.0,35,0.00,,,0.00,weatherlink.com 1.10,2013-03-27 22:08:00,
2013-03-27 17:23:00,68.7,40.0,30.07,SSE,149,4.0,18.0,35,0.00,,,0.00,weatherlink.com 1.10,2013-03-27 22:23:00,
2013-03-27 17:38:00,68.2,39.0,30.07,WSW,240,16.0,21.0,35,0.00,,,0.00,weatherlink.com 1.10,2013-03-27 22:38:00,
2013-03-27 17:53:00,68.5,40.0,30.07,South,175,8.0,19.0,35,0.00,,,0.00,weatherlink.com 1.10,2013-03-27 22:53:00,
2013-03-27 18:08:00,68.0,39.0,30.07,South,191,8.0,23.0,35,0.00,,,0.00,weatherlink.com 1.10,2013-03-27 23:08:00,
2013-03-27 18:23:00,67.6,40.0,30.07,SE,131,8.0,21.0,36,0.00,,,0.00,weatherlink.com 1.10,2013-03-27 23:23:00,
2013-03-27 18:38:00,67.6,40.0,30.07,SSE,167,3.0,19.0,37,0.00,,,0.00,weatherlink.com 1.10,2013-03-27 23:38:00,
2013-03-27 18:53:00,67.1,41.0,30.08,SSW,207,13.0,19.0,38,0.00,,,0.00,weatherlink.com 1.10,2013-03-27 23:53:00,
2013-03-27 19:08:00,66.4,41.0,30.08,SE,137,6.0,13.0,39,0.00,,,0.00,weatherlink.com 1.10,2013-03-28 00:08:00,
2013-03-27 19:23:00,65.5,40.0,30.09,SE,143,3.0,13.0,40,0.00,,,0.00,weatherlink.com 1.10,2013-03-28 00:23:00,
2013-03-27 19:38:00,64.4,40.0,30.09,SSE,160,6.0,13.0,41,0.00,,,0.00,weatherlink.com 1.10,2013-03-28 00:38:00,
2013-03-27 19:54:00,63.5,40.0,30.09,SSE,150,4.0,10.0,43,0.00,,,0.00,weatherlink.com 1.10,2013-03-28 00:54:00,
2013-03-27 20:09:00,62.5,40.0,30.09,ESE,113,3.0,8.0,44,0.00,,,0.00,weatherlink.com 1.10,2013-03-28 01:09:00,
2013-03-27 20:24:00,61.3,40.0,30.09,SE,146,1.0,5.0,46,0.00,,,0.00,weatherlink.com 1.10,2013-03-28 01:24:00,
2013-03-27 20:39:00,60.1,40.0,30.10,SSE,162,0.0,4.0,48,0.00,,,0.00,weatherlink.com 1.10,2013-03-28 01:39:00,
2013-03-27 20:54:00,58.7,40.0,30.11,SE,136,0.0,2.0,50,0.00,,,0.00,weatherlink.com 1.10,2013-03-28 01:54:00,
2013-03-27 21:09:00,56.9,39.0,30.11,SE,131,0.0,1.0,52,0.00,,,0.00,weatherlink.com 1.10,2013-03-28 02:09:00,
2013-03-27 21:24:00,55.7,40.0,30.12,SE,142,1.0,3.0,55,0.00,,,0.00,weatherlink.com 1.10,2013-03-28 02:24:00,
2013-03-27 21:39:00,55.7,40.0,30.12,SE,134,1.0,5.0,56,0.00,,,0.00,weatherlink.com 1.10,2013-03-28 02:39:00,
2013-03-27 21:54:00,55.5,40.0,30.12,SE,141,1.0,4.0,56,0.00,,,0.00,weatherlink.com 1.10,2013-03-28 02:54:00,
2013-03-27 22:09:00,54.9,40.0,30.13,ESE,103,2.0,4.0,58,0.00,,,0.00,weatherlink.com 1.10,2013-03-28 03:09:00,
2013-03-27 22:24:00,55.0,41.0,30.13,SE,124,3.0,7.0,59,0.00,,,0.00,weatherlink.com 1.10,2013-03-28 03:24:00,
2013-03-27 22:39:00,55.7,40.0,30.13,ESE,108,2.0,6.0,57,0.00,,,0.00,weatherlink.com 1.10,2013-03-28 03:39:00,
2013-03-27 22:54:00,55.9,41.0,30.13,SSE,164,3.0,8.0,57,0.00,,,0.00,weatherlink.com 1.10,2013-03-28 03:54:00,
2013-03-27 23:09:00,56.0,40.0,30.13,South,169,4.0,9.0,56,0.00,,,0.00,weatherlink.com 1.10,2013-03-28 04:09:00,
2013-03-27 23:24:00,55.7,40.0,30.13,SE,135,3.0,7.0,56,0.00,,,0.00,weatherlink.com 1.10,2013-03-28 04:24:00,
2013-03-27 23:40:00,55.4,40.0,30.13,SSE,153,3.0,7.0,57,0.00,,,0.00,weatherlink.com 1.10,2013-03-28 04:40:00,
2013-03-27 23:54:00,55.1,40.0,30.14,SE,131,3.0,7.0,57,0.00,,,0.00,weatherlink.com 1.10,2013-03-28 04:54:00,